sensor_id;sensor_type;location;lat;lon;timestamp;P1;durP1;ratioP1;P2;durP2;ratioP2
6344;SDS011;3205;42.666;23.264;2022-07-03T00:01:34;15.00;;;10.10;;
6344;SDS011;3205;42.666;23.264;2022-07-03T00:04:01;13.15;;;10.98;;
6344;SDS011;3205;42.666;23.264;2022-07-03T00:06:31;12.88;;;10.57;;
6344;SDS011;3205;42.666;23.264;2022-07-03T00:08:58;11.05;;;9.65;;
6344;SDS011;3205;42.666;23.264;2022-07-03T00:11:25;11.32;;;10.20;;
6344;SDS011;3205;42.666;23.264;2022-07-03T00:13:51;14.38;;;9.82;;
6344;SDS011;3205;42.666;23.264;2022-07-03T00:16:18;13.25;;;10.27;;
6344;SDS011;3205;42.666;23.264;2022-07-03T00:18:44;12.38;;;10.13;;
6344;SDS011;3205;42.666;23.264;2022-07-03T00:21:12;11.10;;;9.90;;
6344;SDS011;3205;42.666;23.264;2022-07-03T00:23:44;16.90;;;10.02;;
6344;SDS011;3205;42.666;23.264;2022-07-03T00:26:12;11.57;;;9.93;;
6344;SDS011;3205;42.666;23.264;2022-07-03T00:28:40;16.02;;;10.23;;
6344;SDS011;3205;42.666;23.264;2022-07-03T00:31:07;13.95;;;10.93;;
6344;SDS011;3205;42.666;23.264;2022-07-03T00:33:33;14.18;;;10.40;;
6344;SDS011;3205;42.666;23.264;2022-07-03T00:36:01;18.02;;;10.82;;
6344;SDS011;3205;42.666;23.264;2022-07-03T00:38:28;13.82;;;10.40;;
6344;SDS011;3205;42.666;23.264;2022-07-03T00:40:56;18.15;;;11.10;;
6344;SDS011;3205;42.666;23.264;2022-07-03T00:43:23;12.07;;;10.80;;
6344;SDS011;3205;42.666;23.264;2022-07-03T00:45:51;11.45;;;10.38;;
6344;SDS011;3205;42.666;23.264;2022-07-03T00:48:20;12.15;;;10.88;;
6344;SDS011;3205;42.666;23.264;2022-07-03T00:50:47;15.93;;;11.00;;
6344;SDS011;3205;42.666;23.264;2022-07-03T00:53:17;12.30;;;10.90;;
6344;SDS011;3205;42.666;23.264;2022-07-03T00:55:45;16.80;;;11.38;;
6344;SDS011;3205;42.666;23.264;2022-07-03T00:58:14;13.00;;;10.52;;
6344;SDS011;3205;42.666;23.264;2022-07-03T01:00:43;15.93;;;11.18;;
6344;SDS011;3205;42.666;23.264;2022-07-03T01:03:12;15.55;;;10.75;;
6344;SDS011;3205;42.666;23.264;2022-07-03T01:05:42;15.07;;;10.98;;
6344;SDS011;3205;42.666;23.264;2022-07-03T01:08:11;19.58;;;11.52;;
6344;SDS011;3205;42.666;23.264;2022-07-03T01:10:42;13.35;;;11.88;;
6344;SDS011;3205;42.666;23.264;2022-07-03T01:13:12;16.65;;;11.55;;
6344;SDS011;3205;42.666;23.264;2022-07-03T01:15:44;12.88;;;11.48;;
6344;SDS011;3205;42.666;23.264;2022-07-03T01:18:29;17.88;;;11.15;;
6344;SDS011;3205;42.666;23.264;2022-07-03T01:21:00;12.57;;;11.38;;
6344;SDS011;3205;42.666;23.264;2022-07-03T01:23:33;18.20;;;11.85;;
6344;SDS011;3205;42.666;23.264;2022-07-03T01:26:03;13.07;;;11.77;;
6344;SDS011;3205;42.666;23.264;2022-07-03T01:28:30;12.57;;;11.35;;
6344;SDS011;3205;42.666;23.264;2022-07-03T01:31:01;14.35;;;11.00;;
6344;SDS011;3205;42.666;23.264;2022-07-03T01:33:31;15.98;;;11.65;;
6344;SDS011;3205;42.666;23.264;2022-07-03T01:35:58;16.85;;;11.48;;
6344;SDS011;3205;42.666;23.264;2022-07-03T01:38:30;18.70;;;11.13;;
6344;SDS011;3205;42.666;23.264;2022-07-03T01:40:57;13.93;;;10.82;;
6344;SDS011;3205;42.666;23.264;2022-07-03T01:43:27;13.25;;;11.23;;
6344;SDS011;3205;42.666;23.264;2022-07-03T01:45:56;14.40;;;12.23;;
6344;SDS011;3205;42.666;23.264;2022-07-03T01:48:23;17.98;;;12.07;;
6344;SDS011;3205;42.666;23.264;2022-07-03T01:50:49;16.90;;;11.68;;
6344;SDS011;3205;42.666;23.264;2022-07-03T01:53:16;15.27;;;11.15;;
6344;SDS011;3205;42.666;23.264;2022-07-03T01:55:43;12.52;;;11.35;;
6344;SDS011;3205;42.666;23.264;2022-07-03T01:58:10;14.63;;;12.10;;
6344;SDS011;3205;42.666;23.264;2022-07-03T02:00:41;13.43;;;11.77;;
6344;SDS011;3205;42.666;23.264;2022-07-03T02:03:11;13.63;;;11.32;;
6344;SDS011;3205;42.666;23.264;2022-07-03T02:05:41;14.55;;;11.75;;
6344;SDS011;3205;42.666;23.264;2022-07-03T02:08:12;17.17;;;11.90;;
6344;SDS011;3205;42.666;23.264;2022-07-03T02:10:45;14.60;;;12.43;;
6344;SDS011;3205;42.666;23.264;2022-07-03T02:13:15;14.65;;;11.43;;
6344;SDS011;3205;42.666;23.264;2022-07-03T02:15:44;14.60;;;11.85;;
6344;SDS011;3205;42.666;23.264;2022-07-03T02:18:11;14.18;;;12.13;;
6344;SDS011;3205;42.666;23.264;2022-07-03T02:20:45;16.95;;;12.15;;
6344;SDS011;3205;42.666;23.264;2022-07-03T02:23:12;17.88;;;11.38;;
6344;SDS011;3205;42.666;23.264;2022-07-03T02:25:40;12.68;;;11.35;;
6344;SDS011;3205;42.666;23.264;2022-07-03T02:28:11;14.32;;;11.98;;
6344;SDS011;3205;42.666;23.264;2022-07-03T02:30:42;14.38;;;12.10;;
6344;SDS011;3205;42.666;23.264;2022-07-03T02:33:11;14.13;;;12.45;;
6344;SDS011;3205;42.666;23.264;2022-07-03T02:35:37;15.10;;;12.25;;
6344;SDS011;3205;42.666;23.264;2022-07-03T02:38:04;13.45;;;12.20;;
6344;SDS011;3205;42.666;23.264;2022-07-03T02:40:34;19.70;;;12.30;;
6344;SDS011;3205;42.666;23.264;2022-07-03T02:43:04;16.25;;;12.00;;
6344;SDS011;3205;42.666;23.264;2022-07-03T02:45:40;17.88;;;12.68;;
6344;SDS011;3205;42.666;23.264;2022-07-03T02:48:10;14.50;;;12.63;;
6344;SDS011;3205;42.666;23.264;2022-07-03T02:50:40;13.75;;;12.43;;
6344;SDS011;3205;42.666;23.264;2022-07-03T02:53:08;17.98;;;12.45;;
6344;SDS011;3205;42.666;23.264;2022-07-03T02:55:42;14.25;;;12.43;;
6344;SDS011;3205;42.666;23.264;2022-07-03T02:58:13;18.17;;;12.73;;
6344;SDS011;3205;42.666;23.264;2022-07-03T03:00:48;16.10;;;12.52;;
6344;SDS011;3205;42.666;23.264;2022-07-03T03:03:19;18.77;;;12.50;;
6344;SDS011;3205;42.666;23.264;2022-07-03T03:05:49;17.67;;;11.55;;
6344;SDS011;3205;42.666;23.264;2022-07-03T03:08:21;13.05;;;11.52;;
6344;SDS011;3205;42.666;23.264;2022-07-03T03:10:54;14.93;;;12.63;;
6344;SDS011;3205;42.666;23.264;2022-07-03T03:13:23;18.52;;;12.32;;
6344;SDS011;3205;42.666;23.264;2022-07-03T03:15:57;18.00;;;12.65;;
6344;SDS011;3205;42.666;23.264;2022-07-03T03:18:25;16.88;;;12.38;;
6344;SDS011;3205;42.666;23.264;2022-07-03T03:20:55;17.50;;;12.38;;
6344;SDS011;3205;42.666;23.264;2022-07-03T03:23:24;19.55;;;13.63;;
6344;SDS011;3205;42.666;23.264;2022-07-03T03:25:57;16.63;;;12.98;;
6344;SDS011;3205;42.666;23.264;2022-07-03T03:28:24;18.45;;;11.90;;
6344;SDS011;3205;42.666;23.264;2022-07-03T03:30:51;13.57;;;11.85;;
6344;SDS011;3205;42.666;23.264;2022-07-03T03:33:19;14.68;;;11.57;;
6344;SDS011;3205;42.666;23.264;2022-07-03T03:35:45;13.32;;;11.27;;
6344;SDS011;3205;42.666;23.264;2022-07-03T03:38:13;15.55;;;11.52;;
6344;SDS011;3205;42.666;23.264;2022-07-03T03:40:41;13.90;;;11.52;;
6344;SDS011;3205;42.666;23.264;2022-07-03T03:43:09;14.75;;;10.73;;
6344;SDS011;3205;42.666;23.264;2022-07-03T03:45:36;11.68;;;10.48;;
6344;SDS011;3205;42.666;23.264;2022-07-03T03:48:02;15.50;;;10.65;;
6344;SDS011;3205;42.666;23.264;2022-07-03T03:50:29;14.00;;;10.43;;
6344;SDS011;3205;42.666;23.264;2022-07-03T03:52:55;12.13;;;10.77;;
6344;SDS011;3205;42.666;23.264;2022-07-03T03:55:26;11.00;;;9.80;;
6344;SDS011;3205;42.666;23.264;2022-07-03T03:57:53;16.70;;;9.90;;
6344;SDS011;3205;42.666;23.264;2022-07-03T04:00:20;10.38;;;9.02;;
6344;SDS011;3205;42.666;23.264;2022-07-03T04:02:46;11.82;;;9.45;;
6344;SDS011;3205;42.666;23.264;2022-07-03T04:05:12;15.10;;;9.60;;
6344;SDS011;3205;42.666;23.264;2022-07-03T04:07:40;11.38;;;8.60;;
6344;SDS011;3205;42.666;23.264;2022-07-03T04:10:08;14.38;;;9.07;;
6344;SDS011;3205;42.666;23.264;2022-07-03T04:12:37;11.48;;;9.45;;
6344;SDS011;3205;42.666;23.264;2022-07-03T04:15:05;10.48;;;9.38;;
6344;SDS011;3205;42.666;23.264;2022-07-03T04:17:32;12.00;;;8.63;;
6344;SDS011;3205;42.666;23.264;2022-07-03T04:19:58;12.02;;;9.20;;
6344;SDS011;3205;42.666;23.264;2022-07-03T04:22:25;15.32;;;8.82;;
6344;SDS011;3205;42.666;23.264;2022-07-03T04:24:51;11.13;;;9.00;;
6344;SDS011;3205;42.666;23.264;2022-07-03T04:27:18;14.50;;;8.88;;
6344;SDS011;3205;42.666;23.264;2022-07-03T04:29:46;12.43;;;8.50;;
6344;SDS011;3205;42.666;23.264;2022-07-03T04:32:12;12.63;;;8.23;;
6344;SDS011;3205;42.666;23.264;2022-07-03T04:34:39;11.55;;;9.98;;
6344;SDS011;3205;42.666;23.264;2022-07-03T04:37:05;11.98;;;9.70;;
6344;SDS011;3205;42.666;23.264;2022-07-03T04:39:33;11.05;;;9.90;;
6344;SDS011;3205;42.666;23.264;2022-07-03T04:41:59;13.02;;;9.20;;
6344;SDS011;3205;42.666;23.264;2022-07-03T04:44:26;11.13;;;9.35;;
6344;SDS011;3205;42.666;23.264;2022-07-03T04:46:54;9.80;;;8.88;;
6344;SDS011;3205;42.666;23.264;2022-07-03T04:49:20;10.32;;;9.13;;
6344;SDS011;3205;42.666;23.264;2022-07-03T04:51:47;10.98;;;9.68;;
6344;SDS011;3205;42.666;23.264;2022-07-03T04:54:13;11.35;;;8.60;;
6344;SDS011;3205;42.666;23.264;2022-07-03T04:56:40;10.35;;;9.02;;
6344;SDS011;3205;42.666;23.264;2022-07-03T04:59:06;16.90;;;8.30;;
6344;SDS011;3205;42.666;23.264;2022-07-03T05:01:33;12.15;;;9.27;;
6344;SDS011;3205;42.666;23.264;2022-07-03T05:04:01;9.82;;;8.90;;
6344;SDS011;3205;42.666;23.264;2022-07-03T05:06:27;9.70;;;8.68;;
6344;SDS011;3205;42.666;23.264;2022-07-03T05:08:55;9.98;;;8.60;;
6344;SDS011;3205;42.666;23.264;2022-07-03T05:11:21;11.60;;;8.52;;
6344;SDS011;3205;42.666;23.264;2022-07-03T05:13:48;15.93;;;8.02;;
6344;SDS011;3205;42.666;23.264;2022-07-03T05:16:14;11.57;;;8.15;;
6344;SDS011;3205;42.666;23.264;2022-07-03T05:18:42;12.95;;;8.15;;
6344;SDS011;3205;42.666;23.264;2022-07-03T05:21:10;9.93;;;7.88;;
6344;SDS011;3205;42.666;23.264;2022-07-03T05:23:36;10.10;;;8.25;;
6344;SDS011;3205;42.666;23.264;2022-07-03T05:26:03;9.60;;;7.95;;
6344;SDS011;3205;42.666;23.264;2022-07-03T05:28:29;9.63;;;8.65;;
6344;SDS011;3205;42.666;23.264;2022-07-03T05:30:56;10.32;;;7.85;;
6344;SDS011;3205;42.666;23.264;2022-07-03T05:33:23;9.80;;;7.53;;
6344;SDS011;3205;42.666;23.264;2022-07-03T05:35:49;9.43;;;7.60;;
6344;SDS011;3205;42.666;23.264;2022-07-03T05:38:17;8.68;;;7.72;;
6344;SDS011;3205;42.666;23.264;2022-07-03T05:41:04;8.63;;;7.78;;
6344;SDS011;3205;42.666;23.264;2022-07-03T05:43:30;8.27;;;7.28;;
6344;SDS011;3205;42.666;23.264;2022-07-03T05:45:57;7.40;;;6.88;;
6344;SDS011;3205;42.666;23.264;2022-07-03T05:48:24;7.30;;;6.60;;
6344;SDS011;3205;42.666;23.264;2022-07-03T05:50:52;8.80;;;7.82;;
6344;SDS011;3205;42.666;23.264;2022-07-03T05:53:20;8.55;;;7.80;;
6344;SDS011;3205;42.666;23.264;2022-07-03T05:55:48;7.85;;;7.15;;
6344;SDS011;3205;42.666;23.264;2022-07-03T05:58:14;8.68;;;6.78;;
6344;SDS011;3205;42.666;23.264;2022-07-03T06:00:41;10.18;;;7.85;;
6344;SDS011;3205;42.666;23.264;2022-07-03T06:03:08;11.13;;;8.07;;
6344;SDS011;3205;42.666;23.264;2022-07-03T06:05:34;11.27;;;9.00;;
6344;SDS011;3205;42.666;23.264;2022-07-03T06:08:01;8.60;;;7.60;;
6344;SDS011;3205;42.666;23.264;2022-07-03T06:10:29;9.13;;;7.45;;
6344;SDS011;3205;42.666;23.264;2022-07-03T06:12:57;8.23;;;7.35;;
6344;SDS011;3205;42.666;23.264;2022-07-03T06:15:23;12.18;;;7.72;;
6344;SDS011;3205;42.666;23.264;2022-07-03T06:17:50;11.02;;;7.22;;
6344;SDS011;3205;42.666;23.264;2022-07-03T06:20:17;8.20;;;7.40;;
6344;SDS011;3205;42.666;23.264;2022-07-03T06:22:43;9.70;;;6.80;;
6344;SDS011;3205;42.666;23.264;2022-07-03T06:25:12;8.05;;;7.32;;
6344;SDS011;3205;42.666;23.264;2022-07-03T06:27:39;8.60;;;7.80;;
6344;SDS011;3205;42.666;23.264;2022-07-03T06:30:09;8.30;;;7.57;;
6344;SDS011;3205;42.666;23.264;2022-07-03T06:32:35;8.43;;;7.57;;
6344;SDS011;3205;42.666;23.264;2022-07-03T06:35:02;8.98;;;8.23;;
6344;SDS011;3205;42.666;23.264;2022-07-03T06:37:28;7.60;;;7.05;;
6344;SDS011;3205;42.666;23.264;2022-07-03T06:39:55;8.50;;;7.68;;
6344;SDS011;3205;42.666;23.264;2022-07-03T06:42:22;8.65;;;7.72;;
6344;SDS011;3205;42.666;23.264;2022-07-03T06:44:50;9.48;;;8.57;;
6344;SDS011;3205;42.666;23.264;2022-07-03T06:47:16;9.63;;;8.43;;
6344;SDS011;3205;42.666;23.264;2022-07-03T06:49:43;10.63;;;8.25;;
6344;SDS011;3205;42.666;23.264;2022-07-03T06:52:10;8.93;;;7.40;;
6344;SDS011;3205;42.666;23.264;2022-07-03T06:54:37;8.13;;;7.43;;
6344;SDS011;3205;42.666;23.264;2022-07-03T06:57:08;11.35;;;8.02;;
6344;SDS011;3205;42.666;23.264;2022-07-03T06:59:35;9.30;;;7.90;;
6344;SDS011;3205;42.666;23.264;2022-07-03T07:02:04;10.35;;;8.75;;
6344;SDS011;3205;42.666;23.264;2022-07-03T07:04:31;9.68;;;7.57;;
6344;SDS011;3205;42.666;23.264;2022-07-03T07:06:59;12.60;;;8.50;;
6344;SDS011;3205;42.666;23.264;2022-07-03T07:09:26;9.55;;;8.73;;
6344;SDS011;3205;42.666;23.264;2022-07-03T07:11:52;8.65;;;7.80;;
6344;SDS011;3205;42.666;23.264;2022-07-03T07:14:19;13.18;;;9.13;;
6344;SDS011;3205;42.666;23.264;2022-07-03T07:16:45;9.73;;;8.70;;
6344;SDS011;3205;42.666;23.264;2022-07-03T07:19:13;13.43;;;9.35;;
6344;SDS011;3205;42.666;23.264;2022-07-03T07:21:40;11.88;;;9.70;;
6344;SDS011;3205;42.666;23.264;2022-07-03T07:24:06;10.50;;;9.27;;
6344;SDS011;3205;42.666;23.264;2022-07-03T07:26:33;9.45;;;8.70;;
6344;SDS011;3205;42.666;23.264;2022-07-03T07:28:59;10.98;;;8.70;;
6344;SDS011;3205;42.666;23.264;2022-07-03T07:31:26;9.82;;;8.02;;
6344;SDS011;3205;42.666;23.264;2022-07-03T07:33:52;8.95;;;8.20;;
6344;SDS011;3205;42.666;23.264;2022-07-03T07:36:21;9.35;;;8.38;;
6344;SDS011;3205;42.666;23.264;2022-07-03T07:38:48;8.82;;;7.97;;
6344;SDS011;3205;42.666;23.264;2022-07-03T07:41:14;9.63;;;7.97;;
6344;SDS011;3205;42.666;23.264;2022-07-03T07:43:41;8.45;;;7.70;;
6344;SDS011;3205;42.666;23.264;2022-07-03T07:46:08;9.13;;;8.07;;
6344;SDS011;3205;42.666;23.264;2022-07-03T07:48:34;18.50;;;8.23;;
6344;SDS011;3205;42.666;23.264;2022-07-03T07:51:01;8.70;;;7.82;;
6344;SDS011;3205;42.666;23.264;2022-07-03T07:53:29;10.82;;;8.48;;
6344;SDS011;3205;42.666;23.264;2022-07-03T07:55:55;11.02;;;7.55;;
6344;SDS011;3205;42.666;23.264;2022-07-03T07:58:22;9.57;;;7.57;;
6344;SDS011;3205;42.666;23.264;2022-07-03T08:00:48;10.88;;;9.70;;
6344;SDS011;3205;42.666;23.264;2022-07-03T08:03:33;9.57;;;8.05;;
6344;SDS011;3205;42.666;23.264;2022-07-03T08:06:17;14.43;;;8.73;;
6344;SDS011;3205;42.666;23.264;2022-07-03T08:08:45;8.55;;;7.63;;
6344;SDS011;3205;42.666;23.264;2022-07-03T08:11:11;8.93;;;8.10;;
6344;SDS011;3205;42.666;23.264;2022-07-03T08:13:38;11.85;;;8.20;;
6344;SDS011;3205;42.666;23.264;2022-07-03T08:16:05;9.93;;;8.25;;
6344;SDS011;3205;42.666;23.264;2022-07-03T08:18:31;10.80;;;7.07;;
6344;SDS011;3205;42.666;23.264;2022-07-03T08:20:58;7.90;;;7.15;;
6344;SDS011;3205;42.666;23.264;2022-07-03T08:23:25;6.82;;;6.20;;
6344;SDS011;3205;42.666;23.264;2022-07-03T08:25:53;10.95;;;8.40;;
6344;SDS011;3205;42.666;23.264;2022-07-03T08:28:20;8.80;;;7.75;;
6344;SDS011;3205;42.666;23.264;2022-07-03T08:30:46;7.35;;;6.57;;
6344;SDS011;3205;42.666;23.264;2022-07-03T08:33:13;7.90;;;6.50;;
6344;SDS011;3205;42.666;23.264;2022-07-03T08:35:40;13.65;;;7.25;;
6344;SDS011;3205;42.666;23.264;2022-07-03T08:38:06;10.55;;;6.80;;
6344;SDS011;3205;42.666;23.264;2022-07-03T08:40:34;9.25;;;6.63;;
6344;SDS011;3205;42.666;23.264;2022-07-03T08:43:02;12.20;;;7.20;;
6344;SDS011;3205;42.666;23.264;2022-07-03T08:45:29;7.78;;;6.97;;
6344;SDS011;3205;42.666;23.264;2022-07-03T08:47:57;7.53;;;6.63;;
6344;SDS011;3205;42.666;23.264;2022-07-03T08:50:24;8.32;;;6.35;;
6344;SDS011;3205;42.666;23.264;2022-07-03T08:52:51;10.73;;;6.43;;
6344;SDS011;3205;42.666;23.264;2022-07-03T08:55:18;10.45;;;7.05;;
6344;SDS011;3205;42.666;23.264;2022-07-03T08:57:45;8.32;;;6.78;;
6344;SDS011;3205;42.666;23.264;2022-07-03T09:00:14;8.27;;;6.40;;
6344;SDS011;3205;42.666;23.264;2022-07-03T09:02:42;7.47;;;6.80;;
6344;SDS011;3205;42.666;23.264;2022-07-03T09:05:09;8.40;;;5.90;;
6344;SDS011;3205;42.666;23.264;2022-07-03T09:07:37;8.55;;;5.90;;
6344;SDS011;3205;42.666;23.264;2022-07-03T09:10:04;6.70;;;6.10;;
6344;SDS011;3205;42.666;23.264;2022-07-03T09:12:31;6.43;;;5.85;;
6344;SDS011;3205;42.666;23.264;2022-07-03T09:14:58;7.88;;;5.53;;
6344;SDS011;3205;42.666;23.264;2022-07-03T09:17:25;7.32;;;6.22;;
6344;SDS011;3205;42.666;23.264;2022-07-03T09:19:52;6.00;;;5.60;;
6344;SDS011;3205;42.666;23.264;2022-07-03T09:22:20;9.63;;;5.97;;
6344;SDS011;3205;42.666;23.264;2022-07-03T09:24:47;6.35;;;5.72;;
6344;SDS011;3205;42.666;23.264;2022-07-03T09:27:15;10.27;;;5.32;;
6344;SDS011;3205;42.666;23.264;2022-07-03T09:29:48;4.88;;;4.47;;
6344;SDS011;3205;42.666;23.264;2022-07-03T09:32:19;8.05;;;5.90;;
6344;SDS011;3205;42.666;23.264;2022-07-03T09:34:49;5.22;;;4.72;;
6344;SDS011;3205;42.666;23.264;2022-07-03T09:37:23;6.63;;;5.00;;
6344;SDS011;3205;42.666;23.264;2022-07-03T09:39:54;6.35;;;5.28;;
6344;SDS011;3205;42.666;23.264;2022-07-03T09:42:22;8.43;;;4.68;;
6344;SDS011;3205;42.666;23.264;2022-07-03T09:44:48;5.28;;;4.82;;
6344;SDS011;3205;42.666;23.264;2022-07-03T09:47:15;5.20;;;4.80;;
6344;SDS011;3205;42.666;23.264;2022-07-03T09:49:45;4.60;;;4.30;;
6344;SDS011;3205;42.666;23.264;2022-07-03T09:52:26;5.55;;;4.60;;
6344;SDS011;3205;42.666;23.264;2022-07-03T09:54:54;5.10;;;4.68;;
6344;SDS011;3205;42.666;23.264;2022-07-03T09:57:20;5.40;;;4.90;;
6344;SDS011;3205;42.666;23.264;2022-07-03T09:59:47;5.10;;;4.80;;
6344;SDS011;3205;42.666;23.264;2022-07-03T10:02:14;5.45;;;4.38;;
6344;SDS011;3205;42.666;23.264;2022-07-03T10:04:40;5.00;;;4.70;;
6344;SDS011;3205;42.666;23.264;2022-07-03T10:07:07;5.43;;;4.93;;
6344;SDS011;3205;42.666;23.264;2022-07-03T10:09:35;9.18;;;5.00;;
6344;SDS011;3205;42.666;23.264;2022-07-03T10:12:04;9.98;;;4.75;;
6344;SDS011;3205;42.666;23.264;2022-07-03T10:14:31;5.40;;;5.00;;
6344;SDS011;3205;42.666;23.264;2022-07-03T10:16:58;4.07;;;3.88;;
6344;SDS011;3205;42.666;23.264;2022-07-03T10:19:26;4.25;;;3.50;;
6344;SDS011;3205;42.666;23.264;2022-07-03T10:21:53;7.30;;;3.75;;
6344;SDS011;3205;42.666;23.264;2022-07-03T10:24:21;4.63;;;4.10;;
6344;SDS011;3205;42.666;23.264;2022-07-03T10:26:49;4.38;;;4.00;;
6344;SDS011;3205;42.666;23.264;2022-07-03T10:29:16;4.50;;;4.10;;
6344;SDS011;3205;42.666;23.264;2022-07-03T10:31:46;4.82;;;4.18;;
6344;SDS011;3205;42.666;23.264;2022-07-03T10:34:15;6.68;;;3.85;;
6344;SDS011;3205;42.666;23.264;2022-07-03T10:36:42;5.30;;;4.50;;
6344;SDS011;3205;42.666;23.264;2022-07-03T10:39:10;5.03;;;4.57;;
6344;SDS011;3205;42.666;23.264;2022-07-03T10:41:41;7.25;;;3.70;;
6344;SDS011;3205;42.666;23.264;2022-07-03T10:44:28;4.55;;;3.40;;
6344;SDS011;3205;42.666;23.264;2022-07-03T10:47:36;4.03;;;3.28;;
6344;SDS011;3205;42.666;23.264;2022-07-03T10:50:03;6.50;;;3.10;;
6344;SDS011;3205;42.666;23.264;2022-07-03T10:52:30;3.92;;;3.63;;
6344;SDS011;3205;42.666;23.264;2022-07-03T10:54:57;3.88;;;3.50;;
6344;SDS011;3205;42.666;23.264;2022-07-03T10:57:26;3.92;;;3.45;;
6344;SDS011;3205;42.666;23.264;2022-07-03T11:00:13;3.63;;;3.42;;
6344;SDS011;3205;42.666;23.264;2022-07-03T11:02:42;3.53;;;3.22;;
6344;SDS011;3205;42.666;23.264;2022-07-03T11:08:03;3.83;;;3.50;;
6344;SDS011;3205;42.666;23.264;2022-07-03T11:10:33;4.18;;;3.40;;
6344;SDS011;3205;42.666;23.264;2022-07-03T11:13:06;4.75;;;3.42;;
6344;SDS011;3205;42.666;23.264;2022-07-03T11:15:34;3.90;;;3.50;;
6344;SDS011;3205;42.666;23.264;2022-07-03T11:21:16;9.93;;;3.83;;
6344;SDS011;3205;42.666;23.264;2022-07-03T11:23:53;7.72;;;3.70;;
6344;SDS011;3205;42.666;23.264;2022-07-03T11:26:22;4.07;;;3.60;;
6344;SDS011;3205;42.666;23.264;2022-07-03T11:28:52;10.02;;;4.20;;
6344;SDS011;3205;42.666;23.264;2022-07-03T11:31:20;4.13;;;3.53;;
6344;SDS011;3205;42.666;23.264;2022-07-03T11:33:49;4.25;;;3.97;;
6344;SDS011;3205;42.666;23.264;2022-07-03T11:36:26;5.53;;;4.60;;
6344;SDS011;3205;42.666;23.264;2022-07-03T11:39:02;4.30;;;3.90;;
6344;SDS011;3205;42.666;23.264;2022-07-03T11:41:29;6.28;;;4.20;;
6344;SDS011;3205;42.666;23.264;2022-07-03T11:43:57;4.22;;;3.83;;
6344;SDS011;3205;42.666;23.264;2022-07-03T11:46:26;4.28;;;3.80;;
6344;SDS011;3205;42.666;23.264;2022-07-03T11:49:03;4.45;;;3.90;;
6344;SDS011;3205;42.666;23.264;2022-07-03T11:51:30;7.25;;;4.40;;
6344;SDS011;3205;42.666;23.264;2022-07-03T11:53:57;6.38;;;4.15;;
6344;SDS011;3205;42.666;23.264;2022-07-03T11:56:24;4.50;;;3.90;;
6344;SDS011;3205;42.666;23.264;2022-07-03T11:58:51;6.82;;;3.75;;
6344;SDS011;3205;42.666;23.264;2022-07-03T12:01:30;4.18;;;3.88;;
6344;SDS011;3205;42.666;23.264;2022-07-03T12:04:04;4.28;;;3.90;;
6344;SDS011;3205;42.666;23.264;2022-07-03T12:06:34;4.65;;;4.10;;
6344;SDS011;3205;42.666;23.264;2022-07-03T12:09:01;4.18;;;3.83;;
6344;SDS011;3205;42.666;23.264;2022-07-03T12:11:27;6.28;;;4.35;;
6344;SDS011;3205;42.666;23.264;2022-07-03T12:13:54;5.10;;;4.60;;
6344;SDS011;3205;42.666;23.264;2022-07-03T12:16:21;9.13;;;4.57;;
6344;SDS011;3205;42.666;23.264;2022-07-03T12:19:02;4.60;;;4.15;;
6344;SDS011;3205;42.666;23.264;2022-07-03T12:21:34;5.78;;;4.90;;
6344;SDS011;3205;42.666;23.264;2022-07-03T12:24:08;10.35;;;5.00;;
6344;SDS011;3205;42.666;23.264;2022-07-03T12:26:35;5.72;;;4.28;;
6344;SDS011;3205;42.666;23.264;2022-07-03T12:29:03;4.60;;;4.30;;
6344;SDS011;3205;42.666;23.264;2022-07-03T12:31:30;5.03;;;4.22;;
6344;SDS011;3205;42.666;23.264;2022-07-03T12:33:59;5.43;;;4.20;;
6344;SDS011;3205;42.666;23.264;2022-07-03T12:36:27;6.50;;;4.05;;
6344;SDS011;3205;42.666;23.264;2022-07-03T12:38:55;5.38;;;4.65;;
6344;SDS011;3205;42.666;23.264;2022-07-03T12:41:22;4.82;;;4.22;;
6344;SDS011;3205;42.666;23.264;2022-07-03T12:43:49;5.95;;;4.93;;
6344;SDS011;3205;42.666;23.264;2022-07-03T12:46:18;4.78;;;4.32;;
6344;SDS011;3205;42.666;23.264;2022-07-03T12:48:45;6.32;;;4.55;;
6344;SDS011;3205;42.666;23.264;2022-07-03T12:51:13;6.10;;;4.63;;
6344;SDS011;3205;42.666;23.264;2022-07-03T12:53:41;5.47;;;4.97;;
6344;SDS011;3205;42.666;23.264;2022-07-03T12:56:09;7.47;;;5.18;;
6344;SDS011;3205;42.666;23.264;2022-07-03T12:58:36;5.43;;;4.70;;
6344;SDS011;3205;42.666;23.264;2022-07-03T13:01:23;9.40;;;5.38;;
6344;SDS011;3205;42.666;23.264;2022-07-03T13:03:50;6.50;;;4.97;;
6344;SDS011;3205;42.666;23.264;2022-07-03T13:06:18;6.18;;;5.15;;
6344;SDS011;3205;42.666;23.264;2022-07-03T13:08:49;5.45;;;5.00;;
6344;SDS011;3205;42.666;23.264;2022-07-03T13:11:24;5.03;;;4.72;;
6344;SDS011;3205;42.666;23.264;2022-07-03T13:13:51;5.07;;;4.63;;
6344;SDS011;3205;42.666;23.264;2022-07-03T13:16:24;11.27;;;8.00;;
6344;SDS011;3205;42.666;23.264;2022-07-03T13:18:57;5.72;;;4.72;;
6344;SDS011;3205;42.666;23.264;2022-07-03T13:21:25;5.97;;;4.55;;
6344;SDS011;3205;42.666;23.264;2022-07-03T13:23:52;6.70;;;4.82;;
6344;SDS011;3205;42.666;23.264;2022-07-03T13:26:20;5.03;;;4.53;;
6344;SDS011;3205;42.666;23.264;2022-07-03T13:28:46;7.63;;;4.40;;
6344;SDS011;3205;42.666;23.264;2022-07-03T13:31:13;8.43;;;4.90;;
6344;SDS011;3205;42.666;23.264;2022-07-03T13:33:40;7.82;;;4.57;;
6344;SDS011;3205;42.666;23.264;2022-07-03T13:36:08;5.38;;;4.97;;
6344;SDS011;3205;42.666;23.264;2022-07-03T13:38:36;5.65;;;4.53;;
6344;SDS011;3205;42.666;23.264;2022-07-03T13:41:20;5.97;;;5.07;;
6344;SDS011;3205;42.666;23.264;2022-07-03T13:43:50;5.22;;;4.72;;
6344;SDS011;3205;42.666;23.264;2022-07-03T13:46:17;6.60;;;4.53;;
6344;SDS011;3205;42.666;23.264;2022-07-03T13:48:44;5.43;;;4.95;;
6344;SDS011;3205;42.666;23.264;2022-07-03T13:51:11;5.68;;;5.18;;
6344;SDS011;3205;42.666;23.264;2022-07-03T13:53:39;5.35;;;4.80;;
6344;SDS011;3205;42.666;23.264;2022-07-03T13:56:05;8.30;;;4.60;;
6344;SDS011;3205;42.666;23.264;2022-07-03T13:58:34;6.18;;;5.60;;
6344;SDS011;3205;42.666;23.264;2022-07-03T14:01:01;8.40;;;5.47;;
6344;SDS011;3205;42.666;23.264;2022-07-03T14:03:27;6.65;;;5.00;;
6344;SDS011;3205;42.666;23.264;2022-07-03T14:05:54;7.38;;;5.32;;
6344;SDS011;3205;42.666;23.264;2022-07-03T14:08:21;8.50;;;5.10;;
6344;SDS011;3205;42.666;23.264;2022-07-03T14:10:49;7.72;;;5.07;;
6344;SDS011;3205;42.666;23.264;2022-07-03T14:13:16;6.97;;;5.32;;
6344;SDS011;3205;42.666;23.264;2022-07-03T14:15:43;5.55;;;5.05;;
6344;SDS011;3205;42.666;23.264;2022-07-03T14:18:10;10.50;;;4.82;;
6344;SDS011;3205;42.666;23.264;2022-07-03T14:20:37;7.85;;;5.10;;
6344;SDS011;3205;42.666;23.264;2022-07-03T14:23:03;6.25;;;5.78;;
6344;SDS011;3205;42.666;23.264;2022-07-03T14:25:30;7.55;;;5.57;;
6344;SDS011;3205;42.666;23.264;2022-07-03T14:27:58;9.15;;;5.53;;
6344;SDS011;3205;42.666;23.264;2022-07-03T14:30:42;8.50;;;5.50;;
6344;SDS011;3205;42.666;23.264;2022-07-03T14:33:28;5.72;;;5.28;;
6344;SDS011;3205;42.666;23.264;2022-07-03T14:35:55;9.40;;;6.07;;
6344;SDS011;3205;42.666;23.264;2022-07-03T14:38:23;6.72;;;5.55;;
6344;SDS011;3205;42.666;23.264;2022-07-03T14:40:50;6.53;;;5.30;;
6344;SDS011;3205;42.666;23.264;2022-07-03T14:43:18;6.57;;;5.90;;
6344;SDS011;3205;42.666;23.264;2022-07-03T14:45:46;6.00;;;5.40;;
6344;SDS011;3205;42.666;23.264;2022-07-03T14:48:13;6.38;;;5.03;;
6344;SDS011;3205;42.666;23.264;2022-07-03T14:50:40;7.63;;;5.65;;
6344;SDS011;3205;42.666;23.264;2022-07-03T14:53:08;5.95;;;5.45;;
6344;SDS011;3205;42.666;23.264;2022-07-03T14:55:38;6.88;;;5.30;;
6344;SDS011;3205;42.666;23.264;2022-07-03T14:58:08;9.57;;;5.03;;
6344;SDS011;3205;42.666;23.264;2022-07-03T15:00:40;7.97;;;4.78;;
6344;SDS011;3205;42.666;23.264;2022-07-03T15:03:10;7.25;;;5.38;;
6344;SDS011;3205;42.666;23.264;2022-07-03T15:05:39;8.63;;;5.95;;
6344;SDS011;3205;42.666;23.264;2022-07-03T15:08:09;6.47;;;5.32;;